Time;durP1;ratioP1;P1;durP2;ratioP2;P2;SDS_P1;SDS_P2;PMS_P1;PMS_P2;Temp;Humidity;BMP_temperature;BMP_pressure;BME280_temperature;BME280_humidity;BME280_pressure;Samples;Min_cycle;Max_cycle;Signal;HPM_P1;HPM_P2
2022/03/22 00:00:40;;;;;;;5.07;3.70;;;;;;;15.26;58.62;100275.44;5032017;28;20136;-70
2022/03/22 00:03:07;;;;;;;5.43;3.47;;;;;;;15.23;58.37;100259.19;5029345;28;20049;-71
2022/03/22 00:05:37;;;;;;;9.80;4.07;;;;;;;15.30;58.33;100267.19;5027025;28;20125;-72
2022/03/22 00:08:05;;;;;;;6.90;3.90;;;;;;;15.28;58.47;100267.53;5032666;28;20152;-70
2022/03/22 00:10:32;;;;;;;4.57;2.97;;;;;;;15.31;58.34;100268.84;5018320;28;20132;-69
2022/03/22 00:12:59;;;;;;;4.27;2.80;;;;;;;15.14;58.34;100247.91;5029334;28;20459;-69
2022/03/22 00:15:26;;;;;;;4.80;3.37;;;;;;;15.27;58.08;100259.38;5015082;28;20161;-69
2022/03/22 00:18:13;;;;;;;10.10;3.40;;;;;;;14.83;58.15;100194.34;5029499;28;20421;-69
2022/03/22 00:20:42;;;;;;;5.30;3.57;;;;;;;15.20;58.13;100265.47;5020605;28;20085;-69
2022/03/22 00:23:09;;;;;;;5.00;2.77;;;;;;;15.23;58.12;100261.19;5029224;28;20140;-70
2022/03/22 00:25:36;;;;;;;8.37;4.07;;;;;;;15.25;57.61;100251.28;5030564;28;20139;-70
2022/03/22 00:28:03;;;;;;;6.53;3.13;;;;;;;15.36;58.06;100266.75;5022407;28;20592;-70
2022/03/22 00:30:33;;;;;;;9.57;3.13;;;;;;;15.37;57.49;100242.25;5030516;28;20084;-70
2022/03/22 00:33:05;;;;;;;5.27;3.33;;;;;;;15.45;57.75;100260.34;5025677;28;20054;-69
2022/03/22 00:35:36;;;;;;;4.70;2.97;;;;;;;15.38;57.67;100246.72;5019791;28;20049;-70
2022/03/22 00:38:08;;;;;;;8.83;3.23;;;;;;;15.24;57.80;100237.53;5024211;28;20445;-69
2022/03/22 00:40:35;;;;;;;5.77;3.17;;;;;;;15.26;57.92;100249.28;5031575;28;20457;-69
2022/03/22 00:43:03;;;;;;;6.40;3.70;;;;;;;15.26;57.86;100247.31;5022103;28;20140;-70
2022/03/22 00:45:35;;;;;;;5.10;2.57;;;;;;;15.15;57.64;100229.03;5020176;28;20128;-69
2022/03/22 00:48:04;;;;;;;7.50;2.90;;;;;;;15.23;57.70;100247.94;5023457;28;20049;-71
2022/03/22 00:50:34;;;;;;;11.00;3.67;;;;;;;15.28;57.71;100258.22;5036221;28;20144;-67
2022/03/22 00:53:04;;;;;;;4.78;2.95;;;;;;;15.38;57.50;100272.91;5027970;28;20076;-67
2022/03/22 00:55:32;;;;;;;6.88;3.55;;;;;;;15.34;57.62;100277.47;5024871;28;20169;-68
2022/03/22 00:57:59;;;;;;;7.60;3.33;;;;;;;15.34;57.76;100277.47;5027538;28;20076;-68
2022/03/22 01:00:27;;;;;;;7.50;2.90;;;;;;;15.23;57.84;100259.19;5028209;28;20148;-68
2022/03/22 01:02:59;;;;;;;4.07;1.67;;;;;;;14.92;57.89;100216.94;5022885;28;20053;-69
2022/03/22 01:05:27;;;;;;;2.93;2.00;;;;;;;15.03;57.79;100242.81;5031923;28;20133;-69
2022/03/22 01:07:55;;;;;;;5.27;2.80;;;;;;;15.17;57.67;100268.91;5033612;28;20071;-69
2022/03/22 01:10:24;;;;;;;2.50;1.93;;;;;;;15.03;57.76;100245.63;5038729;28;20135;-68
2022/03/22 01:12:51;;;;;;;4.13;2.33;;;;;;;15.00;57.78;100243.44;5036520;28;20096;-68
2022/03/22 01:15:24;;;;;;;4.13;2.60;;;;;;;15.14;57.76;100261.09;5032472;28;20140;-67
2022/03/22 01:17:56;;;;;;;7.60;3.17;;;;;;;15.11;57.72;100267.34;5024704;28;20049;-68
2022/03/22 01:20:26;;;;;;;4.83;2.37;;;;;;;15.15;57.59;100272.03;5029722;28;20056;-70
2022/03/22 01:22:54;;;;;;;5.03;2.67;;;;;;;14.74;57.53;100196.28;5034667;28;20132;-70
2022/03/22 01:25:25;;;;;;;6.43;1.90;;;;;;;15.02;57.50;100241.16;5020437;28;20089;-70
2022/03/22 01:27:53;;;;;;;5.30;2.53;;;;;;;15.06;57.65;100239.38;5029947;28;20555;-70
2022/03/22 01:30:22;;;;;;;4.10;2.47;;;;;;;15.05;57.74;100237.72;5029823;28;20124;-72
2022/03/22 01:32:51;;;;;;;8.07;2.50;;;;;;;15.09;57.72;100247.19;5031365;28;20227;-68
2022/03/22 01:35:23;;;;;;;6.17;1.87;;;;;;;15.07;57.95;100257.91;5026264;28;20153;-68
2022/03/22 01:37:51;;;;;;;3.70;2.17;;;;;;;14.99;57.84;100244.59;5025818;28;20080;-68
2022/03/22 01:40:20;;;;;;;8.63;2.93;;;;;;;15.11;57.73;100253.28;5033143;28;20453;-68
2022/03/22 01:42:48;;;;;;;5.10;3.23;;;;;;;15.05;57.80;100241.34;5035091;28;20144;-67
2022/03/22 01:45:16;;;;;;;3.73;2.20;;;;;;;15.14;57.72;100249.84;5030143;28;20049;-71
2022/03/22 01:47:46;;;;;;;7.80;3.20;;;;;;;15.10;57.82;100249.66;5026941;28;20100;-69
2022/03/22 01:50:15;;;;;;;4.65;2.65;;;;;;;15.03;58.02;100248.44;5038654;28;20041;-68
2022/03/22 01:52:43;;;;;;;6.13;2.47;;;;;;;15.02;57.99;100249.59;5035824;28;20140;-69
2022/03/22 01:55:23;;;;;;;6.37;3.27;;;;;;;14.99;58.05;100241.78;5030803;28;20144;-68
2022/03/22 01:57:50;;;;;;;4.07;2.30;;;;;;;14.81;58.21;100224.78;5029808;28;20136;-69
2022/03/22 02:00:19;;;;;;;3.57;1.83;;;;;;;14.65;57.76;100182.13;5026889;28;20140;-69
2022/03/22 02:05:51;;;;;;;4.90;2.33;;;;;;;15.18;57.50;100239.66;5027037;28;20045;-68
2022/03/22 02:08:20;;;;;;;2.93;1.33;;;;;;;15.20;57.28;100240.16;5024927;28;20389;-69
2022/03/22 02:10:47;;;;;;;3.87;2.37;;;;;;;15.04;57.12;100222.84;5035807;28;20149;-69
2022/03/22 02:13:14;;;;;;;10.13;2.90;;;;;;;15.23;56.96;100233.06;5034339;28;20527;-69
2022/03/22 02:15:47;;;;;;;4.60;2.57;;;;;;;15.17;56.89;100209.84;5027270;28;20983;-71
2022/03/22 02:18:15;;;;;;;4.93;2.60;;;;;;;15.09;57.18;100214.25;5033913;28;20049;-69
2022/03/22 02:20:42;;;;;;;5.57;3.13;;;;;;;15.16;57.53;100241.94;5026718;28;20141;-67
2022/03/22 02:23:20;;;;;;;5.53;3.13;;;;;;;15.22;57.07;100235.03;5033806;28;20136;-68
2022/03/22 02:25:51;;;;;;;5.80;2.27;;;;;;;15.14;57.18;100222.59;5029573;28;20084;-67
2022/03/22 02:28:20;;;;;;;5.67;3.00;;;;;;;15.26;57.00;100236.06;5039981;28;20082;-68
2022/03/22 02:30:52;;;;;;;5.40;2.93;;;;;;;15.29;57.06;100238.22;5027918;28;20128;-69
2022/03/22 02:33:20;;;;;;;8.47;2.47;;;;;;;15.17;56.74;100213.47;5031222;28;20045;-68
2022/03/22 02:35:47;;;;;;;6.30;2.73;;;;;;;15.00;56.97;100188.03;5026264;28;22675;-67
2022/03/22 02:38:14;;;;;;;4.97;2.50;;;;;;;15.31;57.17;100238.72;5033563;28;20128;-68
2022/03/22 02:40:41;;;;;;;5.87;2.67;;;;;;;15.14;57.52;100216.09;5033034;28;20049;-68
2022/03/22 02:43:08;;;;;;;5.00;2.77;;;;;;;15.27;57.47;100243.34;5033774;28;20085;-68
2022/03/22 02:45:35;;;;;;;8.47;3.83;;;;;;;15.22;57.46;100218.16;5028912;28;20390;-69
2022/03/22 02:48:05;;;;;;;5.07;2.80;;;;;;;15.35;57.09;100231.34;5032902;28;20080;-68
2022/03/22 02:50:32;;;;;;;9.45;2.65;;;;;;;15.31;57.41;100235.91;5021287;28;20081;-67
2022/03/22 02:53:00;;;;;;;7.50;3.07;;;;;;;15.39;57.53;100223.09;5031577;28;20124;-68
2022/03/22 02:55:28;;;;;;;4.67;2.47;;;;;;;14.84;57.52;100151.06;5028975;28;20132;-67
2022/03/22 02:57:55;;;;;;;6.73;3.07;;;;;;;15.39;57.82;100223.91;5023594;28;20077;-68
2022/03/22 03:00:23;;;;;;;5.37;3.03;;;;;;;15.32;57.91;100220.72;5025957;28;20129;-67
2022/03/22 03:02:53;;;;;;;4.97;2.10;;;;;;;15.25;57.84;100205.44;5022151;28;20104;-68
2022/03/22 03:05:22;;;;;;;6.13;3.53;;;;;;;15.21;58.14;100212.84;5029261;28;20045;-67
2022/03/22 03:07:51;;;;;;;5.88;2.95;;;;;;;15.23;58.17;100207.75;5028359;28;20057;-69
2022/03/22 03:10:18;;;;;;;4.17;1.60;;;;;;;15.17;58.25;100204.22;5025945;28;20045;-69
2022/03/22 03:12:45;;;;;;;2.73;1.63;;;;;;;15.16;58.46;100205.38;5030829;28;20076;-70
2022/03/22 03:15:13;;;;;;;8.17;2.03;;;;;;;15.01;58.51;100180.44;5034581;28;20081;-69
2022/03/22 03:17:40;;;;;;;4.83;2.00;;;;;;;15.09;58.46;100190.94;5030648;28;20050;-69
2022/03/22 03:20:07;;;;;;;4.70;2.47;;;;;;;14.65;58.66;100141.97;5033657;28;20068;-69
2022/03/22 03:22:35;;;;;;;5.13;2.57;;;;;;;15.01;58.69;100172.00;5029025;28;20058;-70
2022/03/22 03:25:03;;;;;;;5.37;2.37;;;;;;;15.03;58.65;100172.53;5031412;28;20089;-68
2022/03/22 03:27:29;;;;;;;6.17;2.33;;;;;;;15.23;58.51;100194.50;5030409;28;20583;-69
2022/03/22 03:29:56;;;;;;;8.10;2.63;;;;;;;15.13;58.73;100191.94;5045239;28;20092;-69
2022/03/22 03:32:23;;;;;;;6.47;2.23;;;;;;;14.96;58.94;100158.91;5027120;28;20046;-68
2022/03/22 03:34:50;;;;;;;3.83;2.40;;;;;;;15.16;59.23;100182.88;5035060;28;20080;-68
2022/03/22 03:37:17;;;;;;;3.63;1.50;;;;;;;15.17;59.05;100187.34;5033102;28;20088;-69
2022/03/22 03:39:44;;;;;;;5.30;2.60;;;;;;;15.16;59.19;100200.56;5031111;28;20129;-69
2022/03/22 03:42:11;;;;;;;4.47;2.23;;;;;;;15.14;59.73;100204.84;5030766;28;20463;-69
2022/03/22 03:47:24;;;;;;;4.30;2.30;;;;;;;15.09;60.35;100200.19;5023831;28;20051;-67
2022/03/22 03:49:53;;;;;;;4.80;2.43;;;;;;;15.10;60.45;100210.28;5029764;28;20480;-67
2022/03/22 03:52:25;;;;;;;7.47;2.27;;;;;;;15.10;60.32;100204.66;5031650;28;20053;-68
2022/03/22 03:54:53;;;;;;;4.70;1.63;;;;;;;15.14;60.46;100205.72;5022246;28;20480;-68
2022/03/22 03:57:21;;;;;;;2.40;1.60;;;;;;;15.01;60.53;100189.72;5029764;28;20045;-68
2022/03/22 03:59:49;;;;;;;4.77;2.57;;;;;;;14.88;60.72;100173.75;5030238;28;20469;-67
2022/03/22 04:02:17;;;;;;;2.43;1.53;;;;;;;15.13;60.55;100209.66;5032840;28;20152;-69
2022/03/22 04:04:47;;;;;;;2.33;1.33;;;;;;;15.09;60.72;100213.44;5025872;28;20067;-69
2022/03/22 04:07:16;;;;;;;2.47;1.10;;;;;;;14.89;61.38;100198.72;5036737;28;20440;-70
2022/03/22 04:09:43;;;;;;;3.08;2.03;;;;;;;14.86;61.26;100190.91;5028705;28;20452;-72
2022/03/22 04:12:12;;;;;;;9.17;2.97;;;;;;;15.04;61.05;100203.16;5028874;28;20077;-70
2022/03/22 04:14:39;;;;;;;5.57;2.20;;;;;;;14.94;61.63;100211.84;5026911;28;20098;-68
2022/03/22 04:17:08;;;;;;;5.53;2.00;;;;;;;14.92;61.67;100211.31;5029304;28;20236;-68
2022/03/22 04:19:36;;;;;;;3.93;2.27;;;;;;;14.76;61.65;100170.66;5029797;28;20084;-68
2022/03/22 04:22:04;;;;;;;12.27;3.20;;;;;;;15.07;60.92;100210.09;5033770;28;20521;-69
2022/03/22 04:24:31;;;;;;;6.13;2.60;;;;;;;14.97;61.08;100187.84;5019026;28;20144;-68
2022/03/22 04:32:41;;;;;;;5.50;2.87;;;;;;;14.88;61.67;100199.88;5027957;28;20064;-69
2022/03/22 04:32:42;;;;;;;3.93;1.77;;;;;;;14.94;61.27;100200.59;5026342;28;20077;-69
2022/03/22 04:35:19;;;;;;;2.87;1.93;;;;;;;15.00;61.47;100198.47;5022036;28;20049;-69
2022/03/22 04:37:47;;;;;;;2.93;1.83;;;;;;;14.80;62.87;100203.44;5026611;28;20988;-69
2022/03/22 04:40:14;;;;;;;4.47;2.00;;;;;;;14.80;62.06;100183.78;5027160;28;20501;-69
2022/03/22 04:42:42;;;;;;;3.47;2.10;;;;;;;14.95;62.22;100198.59;5028402;28;20140;-67
2022/03/22 04:45:10;;;;;;;10.77;2.33;;;;;;;14.84;62.40;100190.41;5028366;28;20580;-68
2022/03/22 04:47:37;;;;;;;4.53;3.03;;;;;;;14.78;62.30;100179.59;5030302;28;20087;-69
2022/03/22 04:50:06;;;;;;;3.27;1.87;;;;;;;14.73;63.13;100183.34;5028767;28;20045;-69
2022/03/22 04:58:05;;;;;;;6.10;3.37;;;;;;;14.78;63.03;100199.28;5028727;28;20473;-69
2022/03/22 05:00:34;;;;;;;6.73;2.73;;;;;;;14.80;63.60;100206.25;5024270;28;20051;-68
2022/03/22 05:03:08;;;;;;;9.07;3.33;;;;;;;14.62;63.95;100193.19;5032846;28;20053;-69
2022/03/22 05:08:21;;;;;;;4.23;1.40;;;;;;;14.75;64.06;100209.19;5025842;28;20049;-69
2022/03/22 05:10:48;;;;;;;4.23;2.27;;;;;;;14.65;64.35;100209.41;5029249;28;20133;-69
2022/03/22 05:13:19;;;;;;;4.90;2.90;;;;;;;14.68;63.83;100197.53;5026071;28;20041;-68
2022/03/22 05:15:47;;;;;;;6.73;3.13;;;;;;;14.65;64.08;100186.94;5029487;28;20088;-69
2022/03/22 05:18:15;;;;;;;6.03;2.60;;;;;;;14.62;64.27;100190.38;5031329;28;20045;-68
2022/03/22 05:20:42;;;;;;;5.87;2.77;;;;;;;14.74;64.21;100207.53;5024612;28;20051;-67
2022/03/22 05:23:09;;;;;;;7.40;2.70;;;;;;;14.72;64.14;100204.19;5029367;28;20045;-69
2022/03/22 05:25:47;;;;;;;5.70;2.33;;;;;;;14.76;64.39;100222.06;5030246;28;20077;-69
2022/03/22 05:28:16;;;;;;;4.17;2.20;;;;;;;14.84;64.06;100218.53;5025909;28;20085;-70
2022/03/22 05:30:43;;;;;;;4.28;2.22;;;;;;;14.82;63.84;100218.00;5025257;28;20041;-68
2022/03/22 05:33:10;;;;;;;6.93;2.60;;;;;;;14.86;64.04;100224.66;5034740;28;20144;-69
2022/03/22 05:35:37;;;;;;;5.50;2.80;;;;;;;14.68;64.11;100208.78;5035910;28;20145;-69
2022/03/22 05:38:04;;;;;;;6.77;2.67;;;;;;;14.84;63.76;100235.41;5023365;28;20045;-68
2022/03/22 05:40:31;;;;;;;3.03;1.93;;;;;;;14.78;64.24;100236.66;5026223;28;20121;-69
2022/03/22 05:42:58;;;;;;;2.13;1.43;;;;;;;14.45;64.23;100186.22;5024952;28;20088;-69
2022/03/22 05:45:26;;;;;;;3.97;2.30;;;;;;;14.31;64.14;100160.13;5023621;28;20084;-68
2022/03/22 05:47:53;;;;;;;4.77;2.77;;;;;;;14.76;64.29;100240.91;5026349;28;20141;-69
2022/03/22 05:50:20;;;;;;;3.80;2.13;;;;;;;14.62;64.19;100221.28;5023925;28;20548;-70
2022/03/22 05:52:49;;;;;;;3.80;2.50;;;;;;;14.71;64.50;100247.50;5028508;28;20120;-69
2022/03/22 05:55:16;;;;;;;2.60;1.77;;;;;;;14.35;64.51;100200.47;5030968;28;20069;-69
2022/03/22 05:57:43;;;;;;;6.10;2.03;;;;;;;14.67;64.41;100240.84;5033398;28;20545;-69
2022/03/22 06:00:12;;;;;;;3.77;2.43;;;;;;;14.73;64.24;100239.56;5029283;28;20136;-69
2022/03/22 06:02:40;;;;;;;6.47;2.40;;;;;;;14.76;64.13;100261.44;5031895;28;20077;-69
2022/03/22 06:05:11;;;;;;;6.43;3.40;;;;;;;14.68;64.39;100259.38;5030923;28;20064;-69
2022/03/22 06:07:39;;;;;;;13.37;2.60;;;;;;;14.55;64.12;100223.69;5027853;28;20096;-69
2022/03/22 06:10:08;;;;;;;10.23;3.10;;;;;;;14.81;63.91;100266.94;5026896;28;20046;-69
2022/03/22 06:12:41;;;;;;;6.60;3.40;;;;;;;14.88;63.63;100267.34;5029052;28;20096;-69
2022/03/22 06:15:17;;;;;;;4.50;2.37;;;;;;;14.63;63.48;100209.75;5032015;28;20488;-69
2022/03/22 06:17:47;;;;;;;7.17;3.10;;;;;;;14.83;63.96;100266.63;5029383;28;20053;-69
2022/03/22 06:20:16;;;;;;;4.20;2.30;;;;;;;14.86;63.61;100261.19;5027512;28;20107;-67
2022/03/22 06:22:44;;;;;;;4.87;3.30;;;;;;;14.72;63.55;100243.53;5030370;28;20575;-70
2022/03/22 06:25:13;;;;;;;5.83;2.50;;;;;;;14.89;63.37;100263.38;5031294;28;20128;-70
2022/03/22 06:27:41;;;;;;;7.83;3.57;;;;;;;14.89;63.27;100254.94;5028343;28;20046;-69
2022/03/22 06:30:09;;;;;;;5.53;3.00;;;;;;;14.90;63.09;100252.94;5027275;28;20143;-67
2022/03/22 06:32:48;;;;;;;9.00;4.17;;;;;;;14.63;63.66;100231.38;5025313;28;20086;-67
2022/03/22 06:35:17;;;;;;;5.63;3.03;;;;;;;14.82;63.69;100268.59;5027564;28;20171;-68
2022/03/22 06:37:45;;;;;;;6.70;2.42;;;;;;;14.38;64.37;100233.56;5028401;28;20049;-68
2022/03/22 06:40:14;;;;;;;5.70;3.47;;;;;;;14.59;64.23;100264.06;5025956;28;20565;-70
2022/03/22 06:42:42;;;;;;;5.37;2.70;;;;;;;14.45;64.39;100250.00;5028177;28;20580;-67
2022/03/22 06:45:11;;;;;;;6.13;2.77;;;;;;;14.48;64.28;100254.16;5026565;28;20076;-67
2022/03/22 06:47:39;;;;;;;4.57;3.20;;;;;;;14.26;64.46;100243.69;5026170;28;20041;-68
2022/03/22 06:50:11;;;;;;;6.63;2.67;;;;;;;14.52;64.27;100267.28;5025736;28;20560;-68
2022/03/22 06:52:38;;;;;;;6.40;3.17;;;;;;;14.53;63.98;100274.59;5026024;28;20132;-69
2022/03/22 06:55:07;;;;;;;8.00;2.90;;;;;;;14.52;63.92;100269.28;5019433;28;20518;-69
2022/03/22 06:57:34;;;;;;;5.30;3.10;;;;;;;14.58;63.81;100263.22;5026995;28;20047;-66
2022/03/22 07:00:05;;;;;;;4.47;2.87;;;;;;;14.50;63.77;100251.88;5025168;28;20583;-67
2022/03/22 07:02:33;;;;;;;3.03;2.43;;;;;;;14.28;63.96;100224.53;5024926;28;20053;-68
2022/03/22 07:05:00;;;;;;;5.33;3.13;;;;;;;14.57;64.24;100266.38;5026441;28;20536;-68
2022/03/22 07:07:26;;;;;;;3.80;2.90;;;;;;;14.60;63.89;100282.59;5019462;28;20053;-67
2022/03/22 07:09:53;;;;;;;4.10;3.00;;;;;;;14.52;64.26;100288.94;5026278;28;20049;-67
2022/03/22 07:12:20;;;;;;;9.73;3.37;;;;;;;14.46;64.34;100286.22;5025920;28;20132;-68
2022/03/22 07:14:47;;;;;;;7.23;2.77;;;;;;;14.41;63.78;100272.28;5039645;28;20057;-67
2022/03/22 07:17:14;;;;;;;2.83;2.20;;;;;;;14.42;64.18;100267.47;5022411;28;20132;-67
2022/03/22 07:19:47;;;;;;;5.73;3.20;;;;;;;14.34;64.28;100274.66;5027954;28;20045;-67
2022/03/22 07:22:14;;;;;;;7.90;3.80;;;;;;;14.32;64.31;100268.53;5026993;28;20084;-68
2022/03/22 07:24:41;;;;;;;12.63;3.97;;;;;;;14.41;63.64;100269.47;5027060;28;20099;-67
2022/03/22 07:27:08;;;;;;;5.67;2.93;;;;;;;14.40;63.77;100262.19;5025113;28;20103;-67
2022/03/22 07:29:34;;;;;;;3.93;2.00;;;;;;;14.35;64.01;100267.91;5029008;28;20136;-68
2022/03/22 07:32:01;;;;;;;2.83;1.83;;;;;;;14.09;64.92;100280.81;5027939;28;20124;-67
2022/03/22 07:34:28;;;;;;;4.10;2.37;;;;;;;14.24;64.27;100283.31;5030080;28;20136;-68
2022/03/22 07:36:55;;;;;;;4.27;2.37;;;;;;;14.12;64.41;100291.41;5027466;28;20080;-68
2022/03/22 07:39:23;;;;;;;4.03;2.63;;;;;;;13.98;64.92;100278.22;5027746;28;20580;-69
2022/03/22 07:41:50;;;;;;;5.03;2.50;;;;;;;13.86;64.90;100277.88;5030966;28;20100;-67
2022/03/22 07:44:17;;;;;;;4.40;2.43;;;;;;;14.03;64.62;100293.28;5021147;28;20181;-67
2022/03/22 07:46:45;;;;;;;5.27;3.27;;;;;;;14.10;64.31;100282.47;5035036;28;20083;-68
2022/03/22 07:54:43;;;;;;;3.60;1.83;;;;;;;14.54;63.40;100304.34;5031353;28;20091;-70
2022/03/22 07:57:10;;;;;;;4.13;2.00;;;;;;;14.49;63.14;100295.16;5028795;28;20050;-70
2022/03/22 07:59:37;;;;;;;6.97;3.30;;;;;;;14.66;62.99;100301.00;5031362;28;20051;-69
2022/03/22 08:02:04;;;;;;;5.70;3.00;;;;;;;14.97;62.53;100286.25;5033450;28;20084;-70
2022/03/22 08:04:32;;;;;;;1.50;1.23;;;;;;;15.65;61.54;100321.75;5030191;28;20041;-70
2022/03/22 08:06:59;;;;;;;6.83;2.40;;;;;;;16.12;60.30;100308.16;5029456;28;20053;-70
2022/03/22 08:09:25;;;;;;;2.37;1.70;;;;;;;16.17;59.34;100310.84;5027207;28;20133;-70
2022/03/22 08:11:52;;;;;;;2.93;2.30;;;;;;;16.25;59.07;100301.59;5029206;28;20124;-71
2022/03/22 08:14:20;;;;;;;4.10;1.73;;;;;;;16.63;57.93;100329.25;5029366;28;20124;-70
2022/03/22 08:16:47;;;;;;;3.33;2.33;;;;;;;17.00;57.20;100315.78;5036341;28;20067;-69
2022/03/22 08:19:18;;;;;;;3.72;1.73;;;;;;;17.32;55.60;100310.81;5026191;28;20087;-71
2022/03/22 08:21:49;;;;;;;5.38;1.73;;;;;;;17.25;55.04;100297.19;5031056;28;20045;-71
2022/03/22 08:24:16;;;;;;;2.65;1.45;;;;;;;17.28;53.98;100308.66;5026663;28;20045;-68
2022/03/22 08:26:46;;;;;;;3.90;1.45;;;;;;;17.36;54.33;100312.63;5027361;28;20463;-67
2022/03/22 08:29:12;;;;;;;2.85;1.40;;;;;;;17.26;53.38;100319.47;5029247;28;20080;-68
2022/03/22 08:31:43;;;;;;;2.17;1.20;;;;;;;17.17;53.46;100312.97;5028752;28;20064;-68
2022/03/22 08:34:10;;;;;;;2.30;1.17;;;;;;;17.00;53.77;100324.22;5028482;28;20084;-68
2022/03/22 08:36:37;;;;;;;2.22;1.45;;;;;;;17.20;53.34;100309.47;5022287;28;20574;-67
2022/03/22 08:39:04;;;;;;;1.95;1.30;;;;;;;17.72;53.12;100339.69;5020706;28;20335;-68
2022/03/22 08:41:31;;;;;;;1.70;1.20;;;;;;;17.82;52.24;100332.91;5021128;28;20037;-68
2022/03/22 08:43:58;;;;;;;3.35;1.00;;;;;;;17.90;52.01;100329.22;5024148;28;20475;-68
2022/03/22 08:46:25;;;;;;;0.98;0.88;;;;;;;18.01;51.61;100344.66;5025033;28;20169;-69
2022/03/22 08:48:53;;;;;;;2.80;1.45;;;;;;;17.85;51.70;100329.41;5025629;28;20124;-68
2022/03/22 08:51:24;;;;;;;2.17;1.40;;;;;;;17.52;52.22;100344.03;5023788;28;20046;-67
2022/03/22 08:53:53;;;;;;;4.43;1.75;;;;;;;17.34;52.50;100328.25;5018973;28;20223;-68
2022/03/22 08:56:22;;;;;;;3.20;1.48;;;;;;;17.06;53.05;100353.97;5024524;28;20137;-68
2022/03/22 08:58:53;;;;;;;1.80;1.02;;;;;;;16.95;53.26;100361.88;5024689;28;20054;-68
2022/03/22 09:01:24;;;;;;;3.08;0.90;;;;;;;16.69;53.70;100332.75;5019565;28;20421;-68
2022/03/22 09:06:07;;;;;;;0.75;0.52;;;;;;;16.66;53.61;100353.97;5022860;28;20064;-68
2022/03/22 09:06:38;;;;;;;2.47;1.13;;;;;;;16.28;54.54;100308.56;5021502;28;20209;-68
2022/03/22 09:09:06;;;;;;;2.00;1.02;;;;;;;16.47;54.50;100356.22;5022816;28;20045;-68
2022/03/22 09:11:38;;;;;;;1.40;0.77;;;;;;;16.21;55.32;100359.75;5023003;28;20081;-68
2022/03/22 09:14:06;;;;;;;2.22;1.05;;;;;;;16.14;55.06;100356.56;5025600;28;20061;-67
2022/03/22 09:16:33;;;;;;;3.88;1.08;;;;;;;16.10;54.90;100347.06;5024238;28;20170;-68
2022/03/22 09:19:00;;;;;;;3.25;1.50;;;;;;;16.01;55.73;100363.09;5019357;28;20077;-69
2022/03/22 09:21:28;;;;;;;2.92;1.00;;;;;;;15.95;55.67;100364.38;5021716;28;20123;-67
2022/03/22 09:23:55;;;;;;;0.98;0.80;;;;;;;15.88;55.97;100365.66;5022921;28;20057;-67
2022/03/22 09:26:22;;;;;;;5.90;1.40;;;;;;;15.92;55.83;100367.84;5025014;28;20077;-68
2022/03/22 09:28:53;;;;;;;3.00;1.30;;;;;;;15.90;56.37;100361.69;5027615;28;20088;-68
2022/03/22 09:31:23;;;;;;;2.20;1.23;;;;;;;15.85;56.28;100377.56;5025500;28;20128;-68
2022/03/22 09:33:53;;;;;;;2.67;1.30;;;;;;;15.91;56.20;100381.09;5025939;28;20057;-68
2022/03/22 09:36:20;;;;;;;;;;;;;;;15.97;56.35;100373.34;5028283;28;20053;-68
2022/03/22 09:38:47;;;;;;;7.00;2.05;;;;;;;15.84;56.20;100359.00;5028196;28;19928;-69
2022/03/22 09:41:15;;;;;;;8.90;1.48;;;;;;;15.81;56.85;100379.38;5030457;28;20466;-69
2022/03/22 09:43:49;;;;;;;5.55;2.30;;;;;;;15.78;56.90;100368.75;5027120;28;20063;-68
2022/03/22 09:46:18;;;;;;;1.83;0.98;;;;;;;15.68;57.32;100374.63;5019877;28;20145;-69
2022/03/22 09:48:47;;;;;;;3.25;1.83;;;;;;;15.61;57.83;100348.88;5027015;28;20469;-70
2022/03/22 09:54:01;;;;;;;4.13;2.08;;;;;;;15.64;57.94;100360.31;5022007;28;20132;-68
2022/03/22 09:56:31;;;;;;;3.10;1.73;;;;;;;15.81;57.50;100372.91;5029911;28;20099;-69
2022/03/22 09:59:00;;;;;;;7.30;1.67;;;;;;;15.74;57.50;100367.72;5023823;28;20140;-68
2022/03/22 10:01:27;;;;;;;5.70;1.70;;;;;;;15.53;57.68;100338.38;5031375;28;20136;-69
2022/03/22 10:04:08;;;;;;;4.63;1.85;;;;;;;15.78;57.67;100371.56;5022271;28;20056;-68
2022/03/22 10:06:35;;;;;;;1.42;0.93;;;;;;;15.82;57.39;100378.19;5029058;28;20080;-68
2022/03/22 10:09:05;;;;;;;0.70;0.63;;;;;;;15.71;57.52;100362.72;5029435;28;20054;-68
2022/03/22 10:11:40;;;;;;;1.13;1.02;;;;;;;15.37;58.08;100352.81;5018482;28;20121;-69
2022/03/22 10:14:09;;;;;;;4.28;1.30;;;;;;;15.70;57.97;100369.50;5027412;28;20589;-69
2022/03/22 10:16:48;;;;;;;2.13;1.23;;;;;;;15.69;57.50;100361.38;5024815;28;20057;-68
2022/03/22 10:19:24;;;;;;;2.13;1.27;;;;;;;15.70;57.32;100363.88;5026483;28;20095;-69
2022/03/22 10:21:53;;;;;;;3.60;1.43;;;;;;;15.78;57.12;100376.34;5025911;28;20057;-69
2022/03/22 10:24:20;;;;;;;2.17;1.20;;;;;;;15.71;57.49;100379.63;5024960;28;20056;-68
2022/03/22 10:26:47;;;;;;;3.37;1.30;;;;;;;15.64;57.71;100365.94;5032441;28;20087;-67
2022/03/22 10:29:15;;;;;;;2.53;1.77;;;;;;;15.60;57.77;100381.00;5027934;28;20053;-68
2022/03/22 10:31:44;;;;;;;4.03;2.00;;;;;;;15.07;57.70;100280.41;5028029;28;20088;-69
2022/03/22 10:34:15;;;;;;;3.33;1.13;;;;;;;15.74;57.45;100364.91;5027960;28;20505;-68
2022/03/22 10:36:42;;;;;;;2.85;1.80;;;;;;;15.71;57.11;100342.19;5025318;28;20054;-68
2022/03/22 10:39:13;;;;;;;3.60;1.70;;;;;;;15.62;57.23;100322.38;5024696;28;20156;-67
2022/03/22 10:41:43;;;;;;;6.07;1.33;;;;;;;16.15;56.47;100371.47;5026336;28;20046;-69
2022/03/22 10:44:15;;;;;;;4.10;1.75;;;;;;;16.16;56.54;100378.75;5030363;28;20702;-69
2022/03/22 10:46:43;;;;;;;4.80;1.83;;;;;;;16.27;56.39;100364.09;5024831;28;20504;-69
2022/03/22 10:49:13;;;;;;;4.43;2.42;;;;;;;16.34;55.84;100372.91;5027470;28;20053;-67
2022/03/22 10:51:46;;;;;;;5.50;1.88;;;;;;;16.21;56.13;100368.19;5027623;28;20140;-68
2022/03/22 10:54:17;;;;;;;5.10;1.52;;;;;;;16.32;55.53;100375.22;5031353;28;20145;-69
2022/03/22 10:56:47;;;;;;;5.82;2.22;;;;;;;16.39;55.87;100385.19;5030438;28;20075;-69
2022/03/22 10:59:16;;;;;;;9.15;1.77;;;;;;;16.45;55.68;100355.72;5025103;28;20067;-68
2022/03/22 11:01:44;;;;;;;4.68;2.35;;;;;;;16.49;55.36;100382.91;5027536;28;20136;-70
2022/03/22 11:04:15;;;;;;;3.65;1.40;;;;;;;16.17;55.39;100333.38;5025045;28;20049;-68
2022/03/22 11:06:46;;;;;;;3.20;1.50;;;;;;;16.39;55.22;100354.19;5022563;28;20191;-69
2022/03/22 11:09:17;;;;;;;2.80;1.23;;;;;;;16.26;55.66;100370.88;5026139;28;20144;-69
2022/03/22 11:11:45;;;;;;;3.72;2.28;;;;;;;16.34;55.54;100363.59;5024160;28;20132;-68
2022/03/22 11:14:14;;;;;;;2.63;1.45;;;;;;;16.43;55.51;100380.56;5029584;28;20145;-69
2022/03/22 11:16:46;;;;;;;3.47;1.60;;;;;;;16.34;55.20;100384.19;5024681;28;20058;-68
2022/03/22 11:19:20;;;;;;;5.45;2.10;;;;;;;16.48;55.38;100381.28;5025132;28;20053;-69
2022/03/22 11:21:48;;;;;;;2.83;1.40;;;;;;;16.23;55.41;100363.06;5031437;28;20078;-69
2022/03/22 11:24:23;;;;;;;0.82;0.60;;;;;;;16.24;55.25;100361.91;5026988;28;20049;-69
2022/03/22 11:26:54;;;;;;;2.30;1.60;;;;;;;16.39;55.39;100368.28;5027980;28;20053;-69
2022/03/22 11:29:24;;;;;;;2.00;1.30;;;;;;;16.33;55.48;100382.50;5021573;28;20059;-69
2022/03/22 11:34:38;;;;;;;3.45;1.48;;;;;;;15.45;60.42;100384.97;5023400;28;20077;-70
2022/03/22 11:37:08;;;;;;;3.45;1.95;;;;;;;14.89;62.89;100389.91;5023041;28;20103;-68
2022/03/22 11:42:22;;;;;;;4.13;1.70;;;;;;;14.69;64.18;100395.94;5020848;28;20136;-69
2022/03/22 11:44:56;;;;;;;2.67;2.00;;;;;;;14.37;66.42;100406.09;5029159;28;20061;-68
2022/03/22 11:47:23;;;;;;;2.60;1.53;;;;;;;14.19;68.04;100402.22;5020327;28;20140;-69
2022/03/22 11:49:58;;;;;;;6.27;1.93;;;;;;;14.38;67.39;100393.69;5024658;28;20119;-69
2022/03/22 11:52:47;;;;;;;2.93;1.63;;;;;;;14.22;67.50;100356.66;5026704;28;20057;-69
2022/03/22 11:55:15;;;;;;;3.33;2.00;;;;;;;14.58;67.11;100388.88;5023497;28;20540;-69
2022/03/22 11:57:56;;;;;;;6.03;1.93;;;;;;;14.86;65.83;100384.06;5019059;28;20076;-69
2022/03/22 12:00:43;;;;;;;1.60;1.47;;;;;;;14.91;65.94;100387.63;5021376;28;20107;-68
2022/03/22 12:03:12;;;;;;;3.73;2.10;;;;;;;15.02;65.17;100348.03;5023136;28;20045;-68